sensor_id;sensor_type;location;lat;lon;timestamp;P1;durP1;ratioP1;P2;durP2;ratioP2
53267;SDS011;39156;51.176;6.738;2023-02-18T00:00:14;42.13;;;39.72;;
53267;SDS011;39156;51.176;6.738;2023-02-18T00:02:43;42.92;;;40.42;;
53267;SDS011;39156;51.176;6.738;2023-02-18T00:05:10;42.45;;;39.85;;
53267;SDS011;39156;51.176;6.738;2023-02-18T00:07:37;41.90;;;39.40;;
53267;SDS011;39156;51.176;6.738;2023-02-18T00:10:05;41.15;;;38.75;;
53267;SDS011;39156;51.176;6.738;2023-02-18T00:12:35;41.22;;;38.78;;
53267;SDS011;39156;51.176;6.738;2023-02-18T00:15:01;43.10;;;40.60;;
53267;SDS011;39156;51.176;6.738;2023-02-18T00:17:27;42.17;;;39.67;;
53267;SDS011;39156;51.176;6.738;2023-02-18T00:19:53;42.10;;;39.60;;
53267;SDS011;39156;51.176;6.738;2023-02-18T00:22:19;44.30;;;41.75;;
53267;SDS011;39156;51.176;6.738;2023-02-18T00:24:45;42.85;;;40.25;;
53267;SDS011;39156;51.176;6.738;2023-02-18T00:27:10;43.90;;;41.33;;
53267;SDS011;39156;51.176;6.738;2023-02-18T00:29:36;42.67;;;40.08;;
53267;SDS011;39156;51.176;6.738;2023-02-18T00:32:02;43.83;;;41.22;;
53267;SDS011;39156;51.176;6.738;2023-02-18T00:34:27;42.90;;;40.40;;
53267;SDS011;39156;51.176;6.738;2023-02-18T00:36:53;41.97;;;39.42;;
53267;SDS011;39156;51.176;6.738;2023-02-18T00:39:19;42.78;;;40.08;;
53267;SDS011;39156;51.176;6.738;2023-02-18T00:41:44;43.47;;;40.78;;
53267;SDS011;39156;51.176;6.738;2023-02-18T00:44:10;43.08;;;40.47;;
53267;SDS011;39156;51.176;6.738;2023-02-18T00:46:37;42.83;;;40.22;;
53267;SDS011;39156;51.176;6.738;2023-02-18T00:49:03;43.78;;;41.28;;
53267;SDS011;39156;51.176;6.738;2023-02-18T00:51:30;43.13;;;40.60;;
53267;SDS011;39156;51.176;6.738;2023-02-18T00:53:56;41.50;;;38.90;;
53267;SDS011;39156;51.176;6.738;2023-02-18T00:56:22;42.05;;;39.53;;
53267;SDS011;39156;51.176;6.738;2023-02-18T00:58:47;42.40;;;39.80;;
53267;SDS011;39156;51.176;6.738;2023-02-18T01:01:14;43.75;;;41.15;;
53267;SDS011;39156;51.176;6.738;2023-02-18T01:03:40;44.00;;;41.30;;
53267;SDS011;39156;51.176;6.738;2023-02-18T01:06:07;44.58;;;41.85;;
53267;SDS011;39156;51.176;6.738;2023-02-18T01:08:34;45.60;;;42.80;;
53267;SDS011;39156;51.176;6.738;2023-02-18T01:11:00;46.35;;;43.45;;
53267;SDS011;39156;51.176;6.738;2023-02-18T01:13:27;46.13;;;43.35;;
53267;SDS011;39156;51.176;6.738;2023-02-18T01:15:53;42.60;;;40.08;;
53267;SDS011;39156;51.176;6.738;2023-02-18T01:18:19;42.22;;;39.72;;
53267;SDS011;39156;51.176;6.738;2023-02-18T01:20:45;41.58;;;38.97;;
53267;SDS011;39156;51.176;6.738;2023-02-18T01:23:12;45.03;;;42.13;;
53267;SDS011;39156;51.176;6.738;2023-02-18T01:25:38;43.58;;;41.03;;
53267;SDS011;39156;51.176;6.738;2023-02-18T01:28:05;40.63;;;38.22;;
53267;SDS011;39156;51.176;6.738;2023-02-18T01:30:32;42.22;;;39.63;;
53267;SDS011;39156;51.176;6.738;2023-02-18T01:32:58;44.88;;;42.17;;
53267;SDS011;39156;51.176;6.738;2023-02-18T01:35:24;43.33;;;40.63;;
53267;SDS011;39156;51.176;6.738;2023-02-18T01:37:50;43.60;;;40.90;;
53267;SDS011;39156;51.176;6.738;2023-02-18T01:40:17;43.35;;;40.67;;
53267;SDS011;39156;51.176;6.738;2023-02-18T01:42:46;43.22;;;40.72;;
53267;SDS011;39156;51.176;6.738;2023-02-18T01:47:57;41.47;;;39.08;;
53267;SDS011;39156;51.176;6.738;2023-02-18T01:50:26;42.95;;;40.45;;
53267;SDS011;39156;51.176;6.738;2023-02-18T01:52:52;42.55;;;39.95;;
53267;SDS011;39156;51.176;6.738;2023-02-18T01:55:17;43.60;;;41.10;;
53267;SDS011;39156;51.176;6.738;2023-02-18T01:57:43;41.17;;;38.67;;
53267;SDS011;39156;51.176;6.738;2023-02-18T02:00:11;42.73;;;40.30;;
53267;SDS011;39156;51.176;6.738;2023-02-18T02:02:41;42.38;;;39.97;;
53267;SDS011;39156;51.176;6.738;2023-02-18T02:05:10;42.42;;;39.83;;
53267;SDS011;39156;51.176;6.738;2023-02-18T02:07:36;40.20;;;37.90;;
53267;SDS011;39156;51.176;6.738;2023-02-18T02:10:03;42.15;;;39.58;;
53267;SDS011;39156;51.176;6.738;2023-02-18T02:15:38;41.13;;;38.80;;
53267;SDS011;39156;51.176;6.738;2023-02-18T02:19:01;41.72;;;39.33;;
53267;SDS011;39156;51.176;6.738;2023-02-18T02:33:32;42.78;;;40.28;;
53267;SDS011;39156;51.176;6.738;2023-02-18T02:36:19;42.85;;;40.45;;
53267;SDS011;39156;51.176;6.738;2023-02-18T02:41:50;42.50;;;40.00;;
53267;SDS011;39156;51.176;6.738;2023-02-18T02:44:38;43.20;;;40.45;;
53267;SDS011;39156;51.176;6.738;2023-02-18T02:47:31;43.00;;;40.50;;
53267;SDS011;39156;51.176;6.738;2023-02-18T02:50:12;44.20;;;41.60;;
53267;SDS011;39156;51.176;6.738;2023-02-18T02:52:56;43.75;;;41.15;;
53267;SDS011;39156;51.176;6.738;2023-02-18T02:55:26;42.28;;;39.78;;
53267;SDS011;39156;51.176;6.738;2023-02-18T02:57:53;43.13;;;40.63;;
53267;SDS011;39156;51.176;6.738;2023-02-18T03:00:27;44.78;;;42.17;;
53267;SDS011;39156;51.176;6.738;2023-02-18T03:06:07;42.47;;;40.08;;
53267;SDS011;39156;51.176;6.738;2023-02-18T03:08:56;42.55;;;39.90;;
53267;SDS011;39156;51.176;6.738;2023-02-18T03:17:14;41.88;;;39.47;;
53267;SDS011;39156;51.176;6.738;2023-02-18T03:20:07;41.88;;;39.53;;
53267;SDS011;39156;51.176;6.738;2023-02-18T03:22:46;40.53;;;38.25;;
53267;SDS011;39156;51.176;6.738;2023-02-18T03:25:13;42.80;;;40.38;;
53267;SDS011;39156;51.176;6.738;2023-02-18T03:27:57;41.22;;;38.80;;
53267;SDS011;39156;51.176;6.738;2023-02-18T03:30:42;40.85;;;38.55;;
53267;SDS011;39156;51.176;6.738;2023-02-18T03:33:22;39.63;;;37.47;;
53267;SDS011;39156;51.176;6.738;2023-02-18T03:35:53;39.03;;;36.83;;
53267;SDS011;39156;51.176;6.738;2023-02-18T03:41:13;39.70;;;37.50;;
53267;SDS011;39156;51.176;6.738;2023-02-18T03:43:39;40.63;;;38.25;;
53267;SDS011;39156;51.176;6.738;2023-02-18T03:46:13;40.88;;;38.08;;
53267;SDS011;39156;51.176;6.738;2023-02-18T03:48:39;38.30;;;36.08;;
53267;SDS011;39156;51.176;6.738;2023-02-18T03:51:04;40.80;;;38.60;;
53267;SDS011;39156;51.176;6.738;2023-02-18T03:53:30;39.88;;;37.78;;
53267;SDS011;39156;51.176;6.738;2023-02-18T03:55:56;40.90;;;38.67;;
53267;SDS011;39156;51.176;6.738;2023-02-18T03:58:21;39.13;;;37.03;;
53267;SDS011;39156;51.176;6.738;2023-02-18T04:00:47;38.90;;;36.88;;
53267;SDS011;39156;51.176;6.738;2023-02-18T04:03:13;39.10;;;37.08;;
53267;SDS011;39156;51.176;6.738;2023-02-18T04:05:38;39.90;;;37.75;;
53267;SDS011;39156;51.176;6.738;2023-02-18T04:08:04;38.13;;;36.10;;
53267;SDS011;39156;51.176;6.738;2023-02-18T04:10:30;38.47;;;36.40;;
53267;SDS011;39156;51.176;6.738;2023-02-18T04:12:55;37.97;;;35.97;;
53267;SDS011;39156;51.176;6.738;2023-02-18T04:15:21;37.67;;;35.70;;
53267;SDS011;39156;51.176;6.738;2023-02-18T04:17:47;39.03;;;36.95;;
53267;SDS011;39156;51.176;6.738;2023-02-18T04:20:12;36.70;;;34.80;;
53267;SDS011;39156;51.176;6.738;2023-02-18T04:22:38;38.08;;;35.97;;
53267;SDS011;39156;51.176;6.738;2023-02-18T04:25:04;37.35;;;35.35;;
53267;SDS011;39156;51.176;6.738;2023-02-18T04:27:30;37.70;;;35.60;;
53267;SDS011;39156;51.176;6.738;2023-02-18T04:29:55;38.28;;;36.25;;
53267;SDS011;39156;51.176;6.738;2023-02-18T04:32:21;38.90;;;36.65;;
53267;SDS011;39156;51.176;6.738;2023-02-18T04:34:47;39.83;;;37.72;;
53267;SDS011;39156;51.176;6.738;2023-02-18T04:37:12;37.42;;;35.42;;
53267;SDS011;39156;51.176;6.738;2023-02-18T04:39:38;37.70;;;35.75;;
53267;SDS011;39156;51.176;6.738;2023-02-18T04:42:04;37.90;;;35.95;;
53267;SDS011;39156;51.176;6.738;2023-02-18T04:44:33;35.80;;;33.90;;
53267;SDS011;39156;51.176;6.738;2023-02-18T04:47:00;37.22;;;35.30;;
53267;SDS011;39156;51.176;6.738;2023-02-18T04:49:28;37.95;;;35.95;;
53267;SDS011;39156;51.176;6.738;2023-02-18T04:51:53;37.38;;;35.28;;
53267;SDS011;39156;51.176;6.738;2023-02-18T04:54:19;40.58;;;38.33;;
53267;SDS011;39156;51.176;6.738;2023-02-18T04:56:45;38.00;;;36.10;;
53267;SDS011;39156;51.176;6.738;2023-02-18T04:59:10;39.30;;;37.30;;
53267;SDS011;39156;51.176;6.738;2023-02-18T05:01:36;37.28;;;35.35;;
53267;SDS011;39156;51.176;6.738;2023-02-18T05:04:02;37.15;;;35.15;;
53267;SDS011;39156;51.176;6.738;2023-02-18T05:06:28;38.28;;;36.28;;
53267;SDS011;39156;51.176;6.738;2023-02-18T05:08:53;38.42;;;36.47;;
53267;SDS011;39156;51.176;6.738;2023-02-18T05:11:19;36.53;;;34.65;;
53267;SDS011;39156;51.176;6.738;2023-02-18T05:13:44;36.60;;;34.50;;
53267;SDS011;39156;51.176;6.738;2023-02-18T05:16:10;36.97;;;35.08;;
53267;SDS011;39156;51.176;6.738;2023-02-18T05:18:36;38.63;;;36.53;;
53267;SDS011;39156;51.176;6.738;2023-02-18T05:21:01;37.78;;;35.85;;
53267;SDS011;39156;51.176;6.738;2023-02-18T05:23:27;38.80;;;36.72;;
53267;SDS011;39156;51.176;6.738;2023-02-18T05:25:53;38.83;;;36.83;;
53267;SDS011;39156;51.176;6.738;2023-02-18T05:28:19;37.53;;;35.63;;
53267;SDS011;39156;51.176;6.738;2023-02-18T05:30:45;38.35;;;36.25;;
53267;SDS011;39156;51.176;6.738;2023-02-18T05:33:10;39.70;;;37.60;;
53267;SDS011;39156;51.176;6.738;2023-02-18T05:35:36;39.42;;;37.33;;
53267;SDS011;39156;51.176;6.738;2023-02-18T05:38:02;39.78;;;37.67;;
53267;SDS011;39156;51.176;6.738;2023-02-18T05:40:28;38.35;;;36.25;;
53267;SDS011;39156;51.176;6.738;2023-02-18T05:42:54;39.88;;;37.78;;
53267;SDS011;39156;51.176;6.738;2023-02-18T05:45:19;37.25;;;35.17;;
53267;SDS011;39156;51.176;6.738;2023-02-18T05:47:45;37.83;;;35.58;;
53267;SDS011;39156;51.176;6.738;2023-02-18T05:50:11;40.10;;;37.97;;
53267;SDS011;39156;51.176;6.738;2023-02-18T05:52:37;39.67;;;37.47;;
53267;SDS011;39156;51.176;6.738;2023-02-18T05:55:02;38.45;;;36.45;;
53267;SDS011;39156;51.176;6.738;2023-02-18T05:57:28;38.53;;;36.43;;
53267;SDS011;39156;51.176;6.738;2023-02-18T05:59:54;37.58;;;35.53;;
53267;SDS011;39156;51.176;6.738;2023-02-18T06:02:20;38.47;;;36.38;;
53267;SDS011;39156;51.176;6.738;2023-02-18T06:04:46;38.25;;;36.25;;
53267;SDS011;39156;51.176;6.738;2023-02-18T06:07:11;37.22;;;35.33;;
53267;SDS011;39156;51.176;6.738;2023-02-18T06:09:37;37.58;;;35.58;;
53267;SDS011;39156;51.176;6.738;2023-02-18T06:12:03;38.78;;;36.58;;
53267;SDS011;39156;51.176;6.738;2023-02-18T06:14:29;39.75;;;37.63;;
53267;SDS011;39156;51.176;6.738;2023-02-18T06:16:54;40.08;;;37.97;;
53267;SDS011;39156;51.176;6.738;2023-02-18T06:19:20;38.47;;;36.47;;
53267;SDS011;39156;51.176;6.738;2023-02-18T06:21:46;38.78;;;36.70;;
53267;SDS011;39156;51.176;6.738;2023-02-18T06:24:24;38.95;;;36.95;;
53267;SDS011;39156;51.176;6.738;2023-02-18T06:26:50;38.47;;;36.47;;
53267;SDS011;39156;51.176;6.738;2023-02-18T06:29:16;37.80;;;35.80;;
53267;SDS011;39156;51.176;6.738;2023-02-18T06:31:42;37.50;;;35.60;;
53267;SDS011;39156;51.176;6.738;2023-02-18T06:34:07;37.03;;;35.13;;
53267;SDS011;39156;51.176;6.738;2023-02-18T06:36:33;39.70;;;37.70;;
53267;SDS011;39156;51.176;6.738;2023-02-18T06:39:01;37.22;;;35.33;;
53267;SDS011;39156;51.176;6.738;2023-02-18T06:41:28;37.25;;;35.25;;
53267;SDS011;39156;51.176;6.738;2023-02-18T06:43:54;38.05;;;36.05;;
53267;SDS011;39156;51.176;6.738;2023-02-18T06:46:20;36.10;;;34.20;;
53267;SDS011;39156;51.176;6.738;2023-02-18T06:48:45;36.50;;;34.60;;
53267;SDS011;39156;51.176;6.738;2023-02-18T06:51:11;36.80;;;34.80;;
53267;SDS011;39156;51.176;6.738;2023-02-18T06:53:37;37.90;;;35.90;;
53267;SDS011;39156;51.176;6.738;2023-02-18T06:56:02;36.78;;;34.88;;
53267;SDS011;39156;51.176;6.738;2023-02-18T06:58:28;36.50;;;34.60;;
53267;SDS011;39156;51.176;6.738;2023-02-18T07:00:54;35.97;;;34.13;;
53267;SDS011;39156;51.176;6.738;2023-02-18T07:03:20;37.10;;;35.20;;
53267;SDS011;39156;51.176;6.738;2023-02-18T07:05:45;36.20;;;34.35;;
53267;SDS011;39156;51.176;6.738;2023-02-18T07:08:11;36.17;;;34.35;;
53267;SDS011;39156;51.176;6.738;2023-02-18T07:10:37;36.80;;;34.90;;
53267;SDS011;39156;51.176;6.738;2023-02-18T07:13:03;35.90;;;34.10;;
53267;SDS011;39156;51.176;6.738;2023-02-18T07:15:29;37.70;;;35.80;;
53267;SDS011;39156;51.176;6.738;2023-02-18T07:17:55;37.65;;;35.75;;
53267;SDS011;39156;51.176;6.738;2023-02-18T07:20:21;36.95;;;35.10;;
53267;SDS011;39156;51.176;6.738;2023-02-18T07:22:48;38.78;;;36.78;;
53267;SDS011;39156;51.176;6.738;2023-02-18T07:25:14;36.40;;;34.60;;
53267;SDS011;39156;51.176;6.738;2023-02-18T07:27:40;37.92;;;36.03;;
53267;SDS011;39156;51.176;6.738;2023-02-18T07:30:06;36.58;;;34.67;;
53267;SDS011;39156;51.176;6.738;2023-02-18T07:32:32;37.17;;;35.28;;
53267;SDS011;39156;51.176;6.738;2023-02-18T07:34:58;36.75;;;34.90;;
53267;SDS011;39156;51.176;6.738;2023-02-18T07:37:24;36.75;;;34.85;;
53267;SDS011;39156;51.176;6.738;2023-02-18T07:39:50;36.70;;;34.85;;
53267;SDS011;39156;51.176;6.738;2023-02-18T07:42:15;35.97;;;34.17;;
53267;SDS011;39156;51.176;6.738;2023-02-18T07:44:41;37.17;;;35.28;;
53267;SDS011;39156;51.176;6.738;2023-02-18T07:47:09;35.93;;;34.07;;
53267;SDS011;39156;51.176;6.738;2023-02-18T07:49:38;36.67;;;34.78;;
53267;SDS011;39156;51.176;6.738;2023-02-18T07:52:04;37.15;;;35.25;;
53267;SDS011;39156;51.176;6.738;2023-02-18T07:54:30;35.97;;;34.17;;
53267;SDS011;39156;51.176;6.738;2023-02-18T07:56:55;36.20;;;34.40;;
53267;SDS011;39156;51.176;6.738;2023-02-18T07:59:21;37.15;;;35.25;;
53267;SDS011;39156;51.176;6.738;2023-02-18T08:01:47;35.90;;;34.05;;
53267;SDS011;39156;51.176;6.738;2023-02-18T08:04:12;38.08;;;36.08;;
53267;SDS011;39156;51.176;6.738;2023-02-18T08:06:40;36.92;;;35.00;;
53267;SDS011;39156;51.176;6.738;2023-02-18T08:09:12;37.38;;;35.47;;
53267;SDS011;39156;51.176;6.738;2023-02-18T08:14:04;37.67;;;35.67;;
53267;SDS011;39156;51.176;6.738;2023-02-18T08:16:30;35.67;;;33.78;;
53267;SDS011;39156;51.176;6.738;2023-02-18T08:18:55;37.28;;;35.38;;
53267;SDS011;39156;51.176;6.738;2023-02-18T08:21:22;37.17;;;35.15;;
53267;SDS011;39156;51.176;6.738;2023-02-18T08:23:49;37.08;;;35.03;;
53267;SDS011;39156;51.176;6.738;2023-02-18T08:26:16;37.80;;;35.70;;
53267;SDS011;39156;51.176;6.738;2023-02-18T08:28:42;36.83;;;34.83;;
53267;SDS011;39156;51.176;6.738;2023-02-18T08:31:15;37.30;;;35.10;;
53267;SDS011;39156;51.176;6.738;2023-02-18T08:33:47;36.33;;;33.92;;
53267;SDS011;39156;51.176;6.738;2023-02-18T08:36:13;36.70;;;34.70;;
53267;SDS011;39156;51.176;6.738;2023-02-18T08:38:38;37.45;;;35.25;;
53267;SDS011;39156;51.176;6.738;2023-02-18T08:41:05;36.95;;;34.72;;
53267;SDS011;39156;51.176;6.738;2023-02-18T08:43:32;35.88;;;33.78;;
53267;SDS011;39156;51.176;6.738;2023-02-18T08:45:58;39.75;;;37.50;;
53267;SDS011;39156;51.176;6.738;2023-02-18T08:48:24;38.35;;;35.97;;
53267;SDS011;39156;51.176;6.738;2023-02-18T08:50:50;38.95;;;36.67;;
53267;SDS011;39156;51.176;6.738;2023-02-18T08:53:16;36.58;;;34.42;;
53267;SDS011;39156;51.176;6.738;2023-02-18T08:55:42;36.03;;;33.85;;
53267;SDS011;39156;51.176;6.738;2023-02-18T08:58:09;37.70;;;35.50;;
53267;SDS011;39156;51.176;6.738;2023-02-18T09:03:02;37.97;;;35.58;;
53267;SDS011;39156;51.176;6.738;2023-02-18T09:05:28;36.83;;;34.80;;
53267;SDS011;39156;51.176;6.738;2023-02-18T09:07:53;40.15;;;37.67;;
53267;SDS011;39156;51.176;6.738;2023-02-18T09:10:19;36.45;;;34.15;;
53267;SDS011;39156;51.176;6.738;2023-02-18T09:12:45;36.42;;;34.22;;
53267;SDS011;39156;51.176;6.738;2023-02-18T09:15:11;38.05;;;35.85;;
53267;SDS011;39156;51.176;6.738;2023-02-18T09:17:36;38.10;;;35.92;;
53267;SDS011;39156;51.176;6.738;2023-02-18T09:20:02;38.53;;;36.03;;
53267;SDS011;39156;51.176;6.738;2023-02-18T09:22:29;38.15;;;35.80;;
53267;SDS011;39156;51.176;6.738;2023-02-18T09:24:56;36.40;;;34.10;;
53267;SDS011;39156;51.176;6.738;2023-02-18T09:27:22;37.10;;;34.83;;
53267;SDS011;39156;51.176;6.738;2023-02-18T09:29:48;37.90;;;35.42;;
53267;SDS011;39156;51.176;6.738;2023-02-18T09:32:15;38.30;;;35.97;;
53267;SDS011;39156;51.176;6.738;2023-02-18T09:34:42;36.95;;;34.63;;
53267;SDS011;39156;51.176;6.738;2023-02-18T09:37:08;37.92;;;35.70;;
53267;SDS011;39156;51.176;6.738;2023-02-18T09:39:34;37.25;;;34.75;;
53267;SDS011;39156;51.176;6.738;2023-02-18T09:42:01;37.27;;;34.97;;
53267;SDS011;39156;51.176;6.738;2023-02-18T09:44:50;37.30;;;35.20;;
53267;SDS011;39156;51.176;6.738;2023-02-18T09:50:03;37.55;;;35.25;;
53267;SDS011;39156;51.176;6.738;2023-02-18T09:52:34;40.88;;;38.47;;
53267;SDS011;39156;51.176;6.738;2023-02-18T09:55:13;38.05;;;35.50;;
53267;SDS011;39156;51.176;6.738;2023-02-18T09:57:46;38.92;;;36.55;;
53267;SDS011;39156;51.176;6.738;2023-02-18T10:00:22;36.83;;;34.47;;
53267;SDS011;39156;51.176;6.738;2023-02-18T10:03:13;36.17;;;34.17;;
53267;SDS011;39156;51.176;6.738;2023-02-18T10:05:57;38.00;;;35.65;;
53267;SDS011;39156;51.176;6.738;2023-02-18T10:08:37;37.85;;;35.55;;
53267;SDS011;39156;51.176;6.738;2023-02-18T10:13:43;37.15;;;34.88;;
53267;SDS011;39156;51.176;6.738;2023-02-18T10:16:12;37.78;;;35.38;;
53267;SDS011;39156;51.176;6.738;2023-02-18T10:18:46;38.58;;;36.28;;
53267;SDS011;39156;51.176;6.738;2023-02-18T10:21:15;38.45;;;35.83;;
53267;SDS011;39156;51.176;6.738;2023-02-18T10:24:33;38.22;;;35.50;;
53267;SDS011;39156;51.176;6.738;2023-02-18T10:26:54;39.78;;;36.22;;
53267;SDS011;39156;51.176;6.738;2023-02-18T10:29:21;38.72;;;36.22;;
53267;SDS011;39156;51.176;6.738;2023-02-18T10:31:53;37.97;;;35.53;;
53267;SDS011;39156;51.176;6.738;2023-02-18T10:34:40;38.25;;;35.55;;
53267;SDS011;39156;51.176;6.738;2023-02-18T10:40:12;36.22;;;33.92;;
53267;SDS011;39156;51.176;6.738;2023-02-18T10:45:59;38.55;;;36.05;;
53267;SDS011;39156;51.176;6.738;2023-02-18T10:51:30;38.92;;;36.08;;
53267;SDS011;39156;51.176;6.738;2023-02-18T10:53:59;38.88;;;36.28;;
53267;SDS011;39156;51.176;6.738;2023-02-18T10:59:13;39.38;;;36.90;;
53267;SDS011;39156;51.176;6.738;2023-02-18T11:01:45;40.17;;;37.63;;
53267;SDS011;39156;51.176;6.738;2023-02-18T11:07:03;39.67;;;37.28;;
53267;SDS011;39156;51.176;6.738;2023-02-18T11:12:26;40.45;;;38.10;;
53267;SDS011;39156;51.176;6.738;2023-02-18T11:15:06;39.05;;;36.78;;
53267;SDS011;39156;51.176;6.738;2023-02-18T11:17:38;36.22;;;34.13;;
53267;SDS011;39156;51.176;6.738;2023-02-18T11:28:03;40.30;;;37.05;;
53267;SDS011;39156;51.176;6.738;2023-02-18T11:30:41;39.55;;;37.05;;
53267;SDS011;39156;51.176;6.738;2023-02-18T11:36:14;38.03;;;35.78;;
53267;SDS011;39156;51.176;6.738;2023-02-18T11:38:47;38.03;;;35.75;;
53267;SDS011;39156;51.176;6.738;2023-02-18T11:41:20;37.17;;;34.97;;
53267;SDS011;39156;51.176;6.738;2023-02-18T11:43:56;37.67;;;35.57;;
53267;SDS011;39156;51.176;6.738;2023-02-18T11:46:23;38.30;;;36.17;;
53267;SDS011;39156;51.176;6.738;2023-02-18T11:48:51;36.55;;;34.25;;
53267;SDS011;39156;51.176;6.738;2023-02-18T11:56:19;37.38;;;35.28;;
53267;SDS011;39156;51.176;6.738;2023-02-18T11:58:46;36.97;;;34.88;;
53267;SDS011;39156;51.176;6.738;2023-02-18T12:01:14;38.28;;;36.08;;
53267;SDS011;39156;51.176;6.738;2023-02-18T12:04:11;35.75;;;33.75;;
53267;SDS011;39156;51.176;6.738;2023-02-18T12:06:45;38.20;;;36.05;;
53267;SDS011;39156;51.176;6.738;2023-02-18T12:09:22;37.42;;;35.42;;
53267;SDS011;39156;51.176;6.738;2023-02-18T12:12:00;36.53;;;34.60;;
53267;SDS011;39156;51.176;6.738;2023-02-18T12:14:33;36.78;;;34.67;;
53267;SDS011;39156;51.176;6.738;2023-02-18T12:17:09;40.42;;;38.03;;
53267;SDS011;39156;51.176;6.738;2023-02-18T12:20:06;38.33;;;36.22;;
53267;SDS011;39156;51.176;6.738;2023-02-18T12:25:55;37.90;;;35.70;;
53267;SDS011;39156;51.176;6.738;2023-02-18T12:31:44;37.53;;;35.33;;
53267;SDS011;39156;51.176;6.738;2023-02-18T12:37:55;38.10;;;35.92;;
53267;SDS011;39156;51.176;6.738;2023-02-18T12:46:04;36.53;;;34.47;;
53267;SDS011;39156;51.176;6.738;2023-02-18T12:48:58;37.88;;;35.72;;
53267;SDS011;39156;51.176;6.738;2023-02-18T12:57:42;36.55;;;34.45;;
53267;SDS011;39156;51.176;6.738;2023-02-18T13:04:02;37.60;;;35.67;;
53267;SDS011;39156;51.176;6.738;2023-02-18T13:06:52;36.65;;;34.65;;
53267;SDS011;39156;51.176;6.738;2023-02-18T13:13:33;39.95;;;37.65;;
53267;SDS011;39156;51.176;6.738;2023-02-18T13:16:09;38.55;;;36.33;;
53267;SDS011;39156;51.176;6.738;2023-02-18T13:18:39;37.97;;;35.95;;
53267;SDS011;39156;51.176;6.738;2023-02-18T13:21:14;38.47;;;36.38;;
53267;SDS011;39156;51.176;6.738;2023-02-18T13:26:16;38.65;;;36.60;;
53267;SDS011;39156;51.176;6.738;2023-02-18T13:28:47;38.47;;;36.38;;
53267;SDS011;39156;51.176;6.738;2023-02-18T13:31:42;39.97;;;37.85;;
53267;SDS011;39156;51.176;6.738;2023-02-18T13:34:32;38.65;;;36.55;;
53267;SDS011;39156;51.176;6.738;2023-02-18T13:40:54;38.15;;;36.08;;
53267;SDS011;39156;51.176;6.738;2023-02-18T13:48:40;37.72;;;35.63;;
53267;SDS011;39156;51.176;6.738;2023-02-18T13:51:14;39.42;;;37.30;;
53267;SDS011;39156;51.176;6.738;2023-02-18T13:53:53;39.90;;;37.80;;
53267;SDS011;39156;51.176;6.738;2023-02-18T13:57:01;39.03;;;36.63;;
53267;SDS011;39156;51.176;6.738;2023-02-18T13:59:40;38.97;;;36.80;;
53267;SDS011;39156;51.176;6.738;2023-02-18T14:04:53;38.90;;;36.75;;
53267;SDS011;39156;51.176;6.738;2023-02-18T14:10:04;37.72;;;35.50;;
53267;SDS011;39156;51.176;6.738;2023-02-18T14:12:39;37.15;;;35.00;;
53267;SDS011;39156;51.176;6.738;2023-02-18T14:25:50;38.00;;;35.80;;
53267;SDS011;39156;51.176;6.738;2023-02-18T14:30:59;37.90;;;35.70;;
53267;SDS011;39156;51.176;6.738;2023-02-18T14:48:16;37.58;;;35.60;;
53267;SDS011;39156;51.176;6.738;2023-02-18T14:51:05;38.42;;;36.03;;
53267;SDS011;39156;51.176;6.738;2023-02-18T14:53:31;39.92;;;37.72;;
53267;SDS011;39156;51.176;6.738;2023-02-18T14:56:04;39.08;;;36.67;;
53267;SDS011;39156;51.176;6.738;2023-02-18T14:58:35;39.03;;;36.83;;
53267;SDS011;39156;51.176;6.738;2023-02-18T15:01:30;37.15;;;35.05;;
53267;SDS011;39156;51.176;6.738;2023-02-18T15:03:59;37.75;;;35.53;;
53267;SDS011;39156;51.176;6.738;2023-02-18T15:08:53;39.40;;;37.30;;
53267;SDS011;39156;51.176;6.738;2023-02-18T15:11:20;39.13;;;36.83;;
53267;SDS011;39156;51.176;6.738;2023-02-18T15:13:49;36.63;;;34.53;;
53267;SDS011;39156;51.176;6.738;2023-02-18T15:16:20;39.13;;;37.03;;
53267;SDS011;39156;51.176;6.738;2023-02-18T15:19:00;39.05;;;37.03;;
53267;SDS011;39156;51.176;6.738;2023-02-18T15:24:06;39.85;;;37.75;;
53267;SDS011;39156;51.176;6.738;2023-02-18T15:26:42;38.70;;;36.58;;
53267;SDS011;39156;51.176;6.738;2023-02-18T15:29:18;38.17;;;36.17;;
53267;SDS011;39156;51.176;6.738;2023-02-18T15:31:53;38.45;;;36.25;;
53267;SDS011;39156;51.176;6.738;2023-02-18T15:34:34;38.50;;;36.40;;
53267;SDS011;39156;51.176;6.738;2023-02-18T15:37:06;37.85;;;35.92;;
53267;SDS011;39156;51.176;6.738;2023-02-18T15:39:38;37.75;;;35.72;;
53267;SDS011;39156;51.176;6.738;2023-02-18T15:42:16;39.75;;;36.88;;
53267;SDS011;39156;51.176;6.738;2023-02-18T15:44:54;38.13;;;36.03;;
53267;SDS011;39156;51.176;6.738;2023-02-18T15:47:49;38.78;;;36.47;;
53267;SDS011;39156;51.176;6.738;2023-02-18T15:50:19;36.97;;;34.88;;
53267;SDS011;39156;51.176;6.738;2023-02-18T15:52:55;37.08;;;34.97;;
53267;SDS011;39156;51.176;6.738;2023-02-18T15:55:31;38.50;;;36.40;;
53267;SDS011;39156;51.176;6.738;2023-02-18T15:58:00;38.80;;;36.22;;
53267;SDS011;39156;51.176;6.738;2023-02-18T16:00:38;39.08;;;36.97;;
53267;SDS011;39156;51.176;6.738;2023-02-18T16:03:12;41.55;;;39.17;;
53267;SDS011;39156;51.176;6.738;2023-02-18T16:05:45;40.15;;;37.95;;
53267;SDS011;39156;51.176;6.738;2023-02-18T16:08:12;39.22;;;37.03;;
53267;SDS011;39156;51.176;6.738;2023-02-18T16:11:02;38.25;;;36.25;;
53267;SDS011;39156;51.176;6.738;2023-02-18T16:13:36;38.75;;;36.65;;
53267;SDS011;39156;51.176;6.738;2023-02-18T16:16:20;40.10;;;37.92;;
53267;SDS011;39156;51.176;6.738;2023-02-18T16:18:54;39.90;;;37.70;;
53267;SDS011;39156;51.176;6.738;2023-02-18T16:24:28;37.78;;;35.78;;
53267;SDS011;39156;51.176;6.738;2023-02-18T16:29:34;38.05;;;35.88;;
53267;SDS011;39156;51.176;6.738;2023-02-18T16:32:09;38.88;;;36.58;;
53267;SDS011;39156;51.176;6.738;2023-02-18T16:34:35;37.43;;;35.43;;
53267;SDS011;39156;51.176;6.738;2023-02-18T16:37:01;40.55;;;38.17;;
53267;SDS011;39156;51.176;6.738;2023-02-18T16:39:45;39.83;;;37.60;;
53267;SDS011;39156;51.176;6.738;2023-02-18T16:42:13;39.47;;;37.28;;
53267;SDS011;39156;51.176;6.738;2023-02-18T16:44:39;39.08;;;36.90;;
53267;SDS011;39156;51.176;6.738;2023-02-18T16:47:05;39.80;;;37.22;;
53267;SDS011;39156;51.176;6.738;2023-02-18T16:49:32;37.47;;;35.30;;
53267;SDS011;39156;51.176;6.738;2023-02-18T16:51:59;38.75;;;36.50;;
53267;SDS011;39156;51.176;6.738;2023-02-18T16:54:31;38.35;;;36.15;;
53267;SDS011;39156;51.176;6.738;2023-02-18T16:56:57;39.15;;;36.85;;
53267;SDS011;39156;51.176;6.738;2023-02-18T16:59:22;37.13;;;34.92;;
53267;SDS011;39156;51.176;6.738;2023-02-18T17:01:49;38.72;;;36.63;;
53267;SDS011;39156;51.176;6.738;2023-02-18T17:04:16;39.95;;;37.65;;
53267;SDS011;39156;51.176;6.738;2023-02-18T17:06:43;40.92;;;38.58;;
53267;SDS011;39156;51.176;6.738;2023-02-18T17:11:41;40.50;;;37.95;;
53267;SDS011;39156;51.176;6.738;2023-02-18T17:14:12;39.65;;;37.35;;
53267;SDS011;39156;51.176;6.738;2023-02-18T17:16:44;40.28;;;37.97;;
53267;SDS011;39156;51.176;6.738;2023-02-18T17:19:11;37.90;;;35.70;;
53267;SDS011;39156;51.176;6.738;2023-02-18T17:21:37;39.55;;;37.25;;